createdAt,value
2019-03-27T00:01:33.122Z,4.35
2019-03-27T00:03:40.951Z,4.42
2019-03-27T00:05:48.752Z,5.75
2019-03-27T00:07:56.606Z,6.53
2019-03-27T00:10:07.461Z,4.87
2019-03-27T00:12:15.146Z,4.08
2019-03-27T00:14:23.232Z,3.42
2019-03-27T00:16:32.050Z,4.58
2019-03-27T00:18:39.812Z,4.12
2019-03-27T00:20:48.687Z,5.47
2019-03-27T00:22:57.558Z,4.12
2019-03-27T00:25:08.612Z,3.02
2019-03-27T00:27:16.281Z,5.47
2019-03-27T00:29:23.967Z,3.77
2019-03-27T00:31:31.648Z,4.47
2019-03-27T00:33:39.489Z,9.15
2019-03-27T00:35:47.353Z,3.57
2019-03-27T00:37:55.202Z,6.95
2019-03-27T00:40:03.182Z,5.10
2019-03-27T00:42:10.757Z,4.45
2019-03-27T00:44:18.447Z,4.45
2019-03-27T00:46:26.079Z,6.25
2019-03-27T00:48:34.956Z,5.00
2019-03-27T00:50:42.926Z,6.10
2019-03-27T00:52:50.826Z,4.55
2019-03-27T00:54:59.826Z,4.60
2019-03-27T00:57:07.533Z,4.90
2019-03-27T00:59:15.468Z,7.15
2019-03-27T01:01:23.159Z,6.87
2019-03-27T01:03:31.084Z,7.62
2019-03-27T01:05:38.731Z,4.22
2019-03-27T01:07:46.475Z,5.75
2019-03-27T01:09:54.159Z,7.87
2019-03-27T01:12:02.128Z,4.17
2019-03-27T01:14:09.951Z,3.58
2019-03-27T01:16:18.281Z,3.50
2019-03-27T01:18:26.009Z,5.30
2019-03-27T01:20:33.752Z,6.97
2019-03-27T01:22:41.560Z,5.03
2019-03-27T01:24:51.553Z,5.28
2019-03-27T01:26:59.460Z,5.67
2019-03-27T01:29:07.156Z,7.08
2019-03-27T01:31:14.986Z,5.05
2019-03-27T01:33:22.666Z,4.25
2019-03-27T01:35:30.534Z,3.77
2019-03-27T01:37:38.422Z,5.10
2019-03-27T01:39:46.247Z,4.97
2019-03-27T01:41:53.938Z,5.35
2019-03-27T01:44:01.824Z,6.92
2019-03-27T01:46:09.683Z,4.55
2019-03-27T01:48:17.369Z,3.85
2019-03-27T01:50:25.259Z,8.68
2019-03-27T01:52:32.950Z,7.00
2019-03-27T01:54:40.685Z,3.47
2019-03-27T01:56:48.394Z,5.53
2019-03-27T01:58:56.078Z,8.88
2019-03-27T02:01:03.837Z,3.85
2019-03-27T02:03:11.535Z,6.78
2019-03-27T02:05:19.224Z,5.75
2019-03-27T02:07:26.907Z,3.98
2019-03-27T02:09:34.580Z,4.80
2019-03-27T02:11:42.430Z,6.37
2019-03-27T02:13:50.222Z,5.57
2019-03-27T02:16:06.818Z,4.53
2019-03-27T02:18:08.202Z,6.30
2019-03-27T02:20:16.102Z,6.08
2019-03-27T02:22:23.811Z,6.92
2019-03-27T02:24:31.560Z,7.78
2019-03-27T02:26:39.245Z,4.95
2019-03-27T02:28:47.186Z,8.38
2019-03-27T02:30:54.880Z,10.77
2019-03-27T02:33:02.656Z,4.33
2019-03-27T02:35:10.544Z,6.60
2019-03-27T02:37:18.233Z,7.75
2019-03-27T02:39:27.066Z,4.35
2019-03-27T02:41:34.781Z,7.85
2019-03-27T02:43:42.465Z,6.60
2019-03-27T02:45:50.067Z,5.45
2019-03-27T02:47:57.927Z,6.35
2019-03-27T02:50:07.936Z,6.00
2019-03-27T02:52:16.483Z,6.77
2019-03-27T02:54:25.498Z,5.53
2019-03-27T02:56:33.215Z,7.65
2019-03-27T02:58:41.038Z,7.17
2019-03-27T03:00:48.648Z,4.60
2019-03-27T03:02:56.472Z,6.42
2019-03-27T03:05:06.497Z,4.47
2019-03-27T03:07:14.563Z,8.40
2019-03-27T03:09:22.321Z,5.40
2019-03-27T03:11:30.444Z,5.13
2019-03-27T03:13:38.153Z,8.55
2019-03-27T03:15:45.835Z,5.85
2019-03-27T03:17:54.982Z,6.20
2019-03-27T03:20:03.120Z,3.93
2019-03-27T03:22:10.731Z,6.65
2019-03-27T03:24:18.508Z,5.50
2019-03-27T03:26:26.235Z,4.30
2019-03-27T03:28:33.928Z,7.15
2019-03-27T03:30:41.618Z,4.77
2019-03-27T03:32:49.553Z,4.20
2019-03-27T03:34:57.229Z,6.22
2019-03-27T03:37:05.028Z,4.10
2019-03-27T03:39:12.961Z,5.08
2019-03-27T03:41:20.750Z,6.30
2019-03-27T03:43:28.582Z,4.58
2019-03-27T03:45:36.406Z,6.17
2019-03-27T03:47:43.985Z,4.12
2019-03-27T03:49:51.704Z,5.08
2019-03-27T03:51:59.589Z,7.28
2019-03-27T03:54:08.582Z,4.70
2019-03-27T03:56:16.528Z,5.72
2019-03-27T03:58:27.200Z,4.75
2019-03-27T04:00:35.212Z,6.55
2019-03-27T04:02:44.608Z,6.50
2019-03-27T04:04:53.348Z,12.13
2019-03-27T04:07:01.135Z,12.85
2019-03-27T04:09:09.217Z,4.12
2019-03-27T04:11:17.132Z,8.37
2019-03-27T04:13:24.872Z,7.83
2019-03-27T04:15:32.579Z,7.70
2019-03-27T04:17:40.306Z,6.28
2019-03-27T04:19:47.987Z,10.38
2019-03-27T04:21:56.713Z,7.47
2019-03-27T04:24:04.860Z,9.50
2019-03-27T04:26:12.642Z,5.90
2019-03-27T04:28:20.375Z,12.05
2019-03-27T04:30:28.063Z,7.65
2019-03-27T04:32:35.889Z,13.50
2019-03-27T04:34:46.941Z,11.00
2019-03-27T04:36:53.140Z,6.58
2019-03-27T04:39:00.796Z,4.67
2019-03-27T04:41:09.451Z,9.90
2019-03-27T04:43:17.128Z,7.72
2019-03-27T04:45:24.811Z,3.87
2019-03-27T04:47:32.798Z,6.00
2019-03-27T04:49:40.821Z,8.10
2019-03-27T04:51:48.585Z,7.80
2019-03-27T04:53:56.388Z,5.05
2019-03-27T04:56:05.234Z,6.97
2019-03-27T04:58:13.029Z,13.00
2019-03-27T05:00:21.060Z,8.43
2019-03-27T05:02:28.850Z,4.80
2019-03-27T05:04:37.303Z,7.72
2019-03-27T05:06:44.985Z,4.58
2019-03-27T05:08:52.701Z,5.08
2019-03-27T05:11:00.455Z,7.08
2019-03-27T05:13:08.200Z,7.28
2019-03-27T05:15:15.965Z,4.03
2019-03-27T05:17:23.643Z,3.40
2019-03-27T05:19:31.662Z,8.05
2019-03-27T05:21:40.539Z,3.87
2019-03-27T05:23:49.048Z,6.95
2019-03-27T05:25:56.737Z,6.85
2019-03-27T05:28:04.456Z,4.53
2019-03-27T05:30:12.581Z,5.78
2019-03-27T05:32:20.581Z,7.72
2019-03-27T05:34:28.677Z,6.25
2019-03-27T05:36:36.369Z,8.75
2019-03-27T05:38:44.063Z,7.45
2019-03-27T05:40:51.717Z,8.23
2019-03-27T05:43:01.118Z,5.15
2019-03-27T05:45:09.553Z,6.33
2019-03-27T05:47:17.321Z,7.78
2019-03-27T05:49:25.086Z,7.97
2019-03-27T05:51:32.935Z,8.85
2019-03-27T05:53:40.747Z,7.45
2019-03-27T05:55:48.430Z,7.25
2019-03-27T05:57:56.124Z,5.72
2019-03-27T06:00:04.857Z,6.67
2019-03-27T06:02:12.526Z,7.50
2019-03-27T06:04:20.380Z,6.62
2019-03-27T06:06:28.151Z,9.03
2019-03-27T06:08:35.930Z,8.98
2019-03-27T06:10:43.664Z,10.13
2019-03-27T06:12:51.347Z,6.42
2019-03-27T06:14:59.099Z,7.60
2019-03-27T06:17:07.000Z,9.60
2019-03-27T06:19:14.701Z,7.70
2019-03-27T06:21:22.378Z,5.42
2019-03-27T06:23:29.997Z,2.75
2019-03-27T06:25:38.235Z,7.17
2019-03-27T06:27:45.868Z,8.88
2019-03-27T06:29:53.539Z,7.55
2019-03-27T06:32:01.216Z,7.12
2019-03-27T06:34:08.950Z,18.35
2019-03-27T06:36:16.823Z,4.62
2019-03-27T06:38:24.579Z,5.62
2019-03-27T06:40:32.248Z,4.08
2019-03-27T06:42:39.913Z,14.80
2019-03-27T06:44:48.086Z,5.40
2019-03-27T06:46:56.626Z,10.45
2019-03-27T06:49:04.553Z,9.90
2019-03-27T06:51:13.713Z,9.85
2019-03-27T06:53:21.283Z,8.38
2019-03-27T06:55:29.133Z,7.67
2019-03-27T06:57:36.983Z,8.95
2019-03-27T06:59:44.803Z,5.92
2019-03-27T07:01:52.571Z,6.50
2019-03-27T07:04:10.376Z,6.42
2019-03-27T07:06:09.876Z,9.70
2019-03-27T07:08:17.588Z,12.23
2019-03-27T07:10:25.289Z,4.20
2019-03-27T07:12:33.015Z,4.05
2019-03-27T07:14:41.024Z,4.00
2019-03-27T07:16:48.755Z,4.22
2019-03-27T07:18:56.492Z,3.35
2019-03-27T07:21:04.257Z,5.55
2019-03-27T07:23:12.026Z,4.92
2019-03-27T07:25:19.818Z,4.60
2019-03-27T07:27:27.706Z,4.03
2019-03-27T07:29:35.473Z,3.85
2019-03-27T07:31:44.298Z,3.45
2019-03-27T07:33:52.469Z,5.95
2019-03-27T07:36:00.330Z,2.58
2019-03-27T07:38:07.994Z,3.45
2019-03-27T07:40:15.973Z,3.80
2019-03-27T07:42:23.731Z,7.50
2019-03-27T07:44:31.388Z,4.42
2019-03-27T07:46:39.052Z,3.47
2019-03-27T07:48:53.940Z,3.15
2019-03-27T07:50:56.354Z,3.02
2019-03-27T07:53:04.016Z,3.87
2019-03-27T07:55:19.130Z,4.60
2019-03-27T07:57:21.234Z,4.40
2019-03-27T07:59:28.902Z,4.00
2019-03-27T08:01:36.494Z,5.83
2019-03-27T08:03:44.172Z,2.30
2019-03-27T08:05:52.108Z,4.55
2019-03-27T08:07:59.977Z,4.97
2019-03-27T08:10:08.919Z,4.83
2019-03-27T08:12:16.647Z,9.00
2019-03-27T08:14:24.361Z,7.45
2019-03-27T08:16:32.383Z,3.75
2019-03-27T08:18:40.012Z,2.70
2019-03-27T08:20:47.762Z,2.33
2019-03-27T08:22:57.360Z,3.17
2019-03-27T08:25:07.430Z,4.00
2019-03-27T08:27:15.245Z,3.45
2019-03-27T08:29:22.993Z,3.08
2019-03-27T08:31:32.290Z,3.20
2019-03-27T08:33:39.894Z,2.65
2019-03-27T08:35:47.534Z,2.65
2019-03-27T08:37:56.880Z,3.02
2019-03-27T08:40:09.131Z,3.05
2019-03-27T08:42:16.778Z,3.80
2019-03-27T08:44:24.440Z,3.45
2019-03-27T08:46:32.209Z,3.70
2019-03-27T08:48:39.915Z,2.30
2019-03-27T08:50:47.580Z,3.17
2019-03-27T08:52:56.477Z,2.55
2019-03-27T08:55:08.159Z,2.98
2019-03-27T08:57:16.981Z,4.47
2019-03-27T08:59:24.664Z,2.35
2019-03-27T09:01:33.315Z,4.50
2019-03-27T09:03:40.878Z,5.80
2019-03-27T09:05:48.785Z,3.83
2019-03-27T09:07:56.465Z,2.87
2019-03-27T09:10:07.207Z,2.50
2019-03-27T09:12:14.947Z,2.22
2019-03-27T09:14:22.682Z,4.85
2019-03-27T09:16:30.340Z,3.85
2019-03-27T09:18:38.137Z,4.45
2019-03-27T09:20:45.959Z,3.98
2019-03-27T09:22:53.624Z,7.90
2019-03-27T09:25:01.326Z,6.08
2019-03-27T09:27:09.099Z,3.02
2019-03-27T09:29:16.837Z,3.60
2019-03-27T09:31:25.498Z,2.98
2019-03-27T09:33:33.160Z,3.22
2019-03-27T09:35:41.007Z,6.72
2019-03-27T09:37:48.639Z,12.68
2019-03-27T09:39:56.377Z,3.62
2019-03-27T09:42:04.177Z,3.80
2019-03-27T09:44:11.938Z,3.20
2019-03-27T09:46:19.601Z,2.58
2019-03-27T09:48:27.347Z,2.15
2019-03-27T09:50:35.040Z,3.58
2019-03-27T09:52:42.848Z,4.60
2019-03-27T09:54:50.503Z,4.97
2019-03-27T09:56:58.213Z,4.60
2019-03-27T09:59:06.220Z,4.37
2019-03-27T10:01:14.892Z,2.15
2019-03-27T10:03:22.635Z,3.05
2019-03-27T10:05:30.299Z,2.70
2019-03-27T10:07:38.030Z,3.10
2019-03-27T10:09:45.724Z,1.98
2019-03-27T10:11:53.450Z,3.08
2019-03-27T10:14:01.186Z,2.83
2019-03-27T10:16:10.019Z,2.67
2019-03-27T10:18:17.657Z,3.22
2019-03-27T10:20:25.319Z,3.98
2019-03-27T10:22:33.083Z,2.33
2019-03-27T10:24:40.741Z,1.77
2019-03-27T10:26:48.502Z,2.55
2019-03-27T10:28:56.266Z,7.35
2019-03-27T10:31:03.912Z,4.10
2019-03-27T10:33:15.117Z,3.65
2019-03-27T10:35:21.573Z,1.35
2019-03-27T10:37:29.316Z,1.67
2019-03-27T10:39:36.982Z,2.15
2019-03-27T10:41:44.676Z,3.12
2019-03-27T10:43:53.441Z,2.83
2019-03-27T10:46:01.179Z,4.15
2019-03-27T10:48:08.894Z,2.55
2019-03-27T10:50:18.072Z,1.85
2019-03-27T10:52:26.890Z,2.75
2019-03-27T10:54:34.735Z,3.17
2019-03-27T10:56:42.537Z,2.72
2019-03-27T10:58:50.197Z,2.25
2019-03-27T11:00:57.885Z,3.00
2019-03-27T11:03:05.699Z,2.60
2019-03-27T11:05:13.733Z,3.95
2019-03-27T11:07:21.557Z,1.50
2019-03-27T11:09:29.291Z,3.25
2019-03-27T11:11:36.849Z,1.82
2019-03-27T11:13:44.613Z,6.22
2019-03-27T11:15:52.265Z,2.40
2019-03-27T11:17:59.993Z,2.70
2019-03-27T11:20:08.510Z,2.10
2019-03-27T11:22:16.156Z,2.00
2019-03-27T11:24:23.888Z,2.00
2019-03-27T11:26:31.647Z,2.12
2019-03-27T11:28:39.384Z,1.75
2019-03-27T11:30:48.577Z,1.20
2019-03-27T11:32:56.536Z,1.30
2019-03-27T11:35:05.111Z,2.08
2019-03-27T11:37:12.775Z,1.22
2019-03-27T11:39:20.563Z,2.15
2019-03-27T11:41:28.281Z,2.00
2019-03-27T11:43:35.942Z,3.30
2019-03-27T11:45:43.636Z,1.70
2019-03-27T11:47:51.412Z,2.40
2019-03-27T11:49:59.069Z,1.42
2019-03-27T11:52:07.171Z,2.80
2019-03-27T11:54:14.789Z,3.55
2019-03-27T11:56:23.707Z,1.47
2019-03-27T11:58:31.361Z,2.05
2019-03-27T12:00:53.476Z,2.62
2019-03-27T12:02:48.431Z,1.95
2019-03-27T12:04:56.213Z,2.42
2019-03-27T12:07:03.972Z,2.87
2019-03-27T12:09:11.682Z,2.50
2019-03-27T12:11:19.605Z,3.12
2019-03-27T12:13:27.235Z,1.80
2019-03-27T12:15:42.371Z,2.65
2019-03-27T12:17:50.160Z,1.77
2019-03-27T12:19:57.925Z,1.57
2019-03-27T12:22:05.591Z,2.20
2019-03-27T12:24:13.482Z,2.02
2019-03-27T12:26:21.104Z,1.80
2019-03-27T12:28:28.782Z,2.20
2019-03-27T12:30:37.990Z,2.35
2019-03-27T12:32:45.802Z,2.65
2019-03-27T12:34:53.442Z,1.72
2019-03-27T12:37:01.965Z,1.55
2019-03-27T12:39:09.794Z,1.80
2019-03-27T12:41:17.457Z,1.62
2019-03-27T12:43:25.156Z,1.92
2019-03-27T12:45:32.965Z,2.08
2019-03-27T12:47:40.662Z,1.92
2019-03-27T12:49:48.398Z,4.10
2019-03-27T12:51:56.195Z,2.90
2019-03-27T12:54:03.925Z,3.30
2019-03-27T12:56:11.701Z,2.40
2019-03-27T12:58:19.360Z,3.05
2019-03-27T13:00:27.538Z,2.27
2019-03-27T13:02:35.237Z,3.12
2019-03-27T13:04:42.968Z,3.75
2019-03-27T13:06:50.628Z,2.90
2019-03-27T13:08:58.319Z,2.85
2019-03-27T13:11:06.050Z,2.00
2019-03-27T13:13:13.790Z,4.67
2019-03-27T13:15:21.480Z,3.02
2019-03-27T13:17:29.154Z,4.37
2019-03-27T13:19:36.879Z,3.72
2019-03-27T13:21:44.907Z,1.40
2019-03-27T13:23:52.572Z,3.65
2019-03-27T13:26:00.304Z,2.17
2019-03-27T13:28:08.069Z,1.47
2019-03-27T13:30:16.834Z,2.30
2019-03-27T13:32:24.468Z,2.83
2019-03-27T13:34:32.229Z,1.65
2019-03-27T13:36:42.687Z,3.27
2019-03-27T13:38:50.945Z,2.05
2019-03-27T13:40:58.662Z,1.98
2019-03-27T13:43:07.438Z,1.75
2019-03-27T13:45:16.540Z,1.45
2019-03-27T13:47:24.416Z,1.77
2019-03-27T13:49:32.399Z,2.27
2019-03-27T13:51:41.171Z,2.20
2019-03-27T13:53:49.035Z,1.52
2019-03-27T13:55:56.767Z,2.72
2019-03-27T13:58:04.562Z,2.80
2019-03-27T14:00:14.242Z,1.75
2019-03-27T14:02:21.957Z,1.92
2019-03-27T14:04:29.639Z,1.90
2019-03-27T14:06:37.467Z,3.02
2019-03-27T14:08:45.241Z,3.95
2019-03-27T14:10:52.923Z,2.33
2019-03-27T14:13:00.618Z,2.60
2019-03-27T14:15:12.663Z,2.25
2019-03-27T14:17:20.327Z,1.82
2019-03-27T14:19:28.027Z,2.40
2019-03-27T14:21:35.834Z,2.00
2019-03-27T14:23:44.686Z,2.25
2019-03-27T14:25:52.424Z,1.85
2019-03-27T14:28:00.181Z,3.52
2019-03-27T14:30:12.164Z,2.72
2019-03-27T14:32:19.970Z,3.10
2019-03-27T14:34:27.698Z,2.25
2019-03-27T14:36:35.427Z,3.42
2019-03-27T14:38:43.326Z,2.47
2019-03-27T14:40:52.221Z,1.37
2019-03-27T14:42:59.951Z,1.62
2019-03-27T14:45:11.302Z,2.77
2019-03-27T14:47:18.997Z,1.92
2019-03-27T14:49:26.658Z,2.98
2019-03-27T14:51:34.498Z,2.22
2019-03-27T14:53:42.152Z,1.50
2019-03-27T14:55:49.912Z,3.92
2019-03-27T14:57:57.609Z,6.03
2019-03-27T15:00:09.760Z,2.47
2019-03-27T15:02:17.478Z,2.75
2019-03-27T15:04:25.238Z,2.47
2019-03-27T15:06:32.793Z,1.67
2019-03-27T15:08:40.580Z,2.45
2019-03-27T15:10:48.227Z,2.25
2019-03-27T15:12:56.027Z,1.57
2019-03-27T15:15:04.827Z,2.52
2019-03-27T15:17:12.617Z,1.90
2019-03-27T15:19:21.314Z,1.67
2019-03-27T15:21:29.037Z,2.83
2019-03-27T15:23:36.805Z,2.72
2019-03-27T15:25:44.615Z,1.95
2019-03-27T15:27:52.371Z,1.57
2019-03-27T15:30:00.264Z,1.85
2019-03-27T15:32:08.273Z,2.25
2019-03-27T15:34:15.931Z,4.22
2019-03-27T15:36:23.934Z,2.17
2019-03-27T15:38:31.617Z,4.92
2019-03-27T15:40:44.783Z,3.67
2019-03-27T15:42:53.477Z,5.12
2019-03-27T15:45:01.361Z,3.35
2019-03-27T15:47:09.096Z,1.85
2019-03-27T15:49:16.864Z,5.83
2019-03-27T15:51:24.603Z,8.43
2019-03-27T15:53:33.083Z,7.40
2019-03-27T15:55:41.970Z,2.92
2019-03-27T15:57:49.696Z,4.45
2019-03-27T15:59:57.260Z,2.50
2019-03-27T16:02:05.790Z,4.50
2019-03-27T16:04:13.354Z,8.03
2019-03-27T16:06:21.025Z,2.87
2019-03-27T16:08:28.782Z,3.30
2019-03-27T16:10:36.487Z,3.98
2019-03-27T16:12:44.144Z,3.75
2019-03-27T16:14:51.974Z,3.55
2019-03-27T16:17:12.744Z,3.40
2019-03-27T16:19:08.857Z,3.00
2019-03-27T16:21:16.581Z,2.95
2019-03-27T16:23:24.387Z,3.75
2019-03-27T16:25:32.052Z,5.28
2019-03-27T16:27:39.894Z,3.77
2019-03-27T16:29:47.669Z,3.58
2019-03-27T16:31:55.360Z,3.85
2019-03-27T16:34:03.188Z,5.90
2019-03-27T16:36:10.928Z,4.47
2019-03-27T16:38:18.769Z,4.85
2019-03-27T16:40:47.356Z,4.53
2019-03-27T16:42:56.071Z,7.90
2019-03-27T16:45:06.056Z,3.67
2019-03-27T16:47:14.020Z,7.65
2019-03-27T16:49:21.863Z,7.12
2019-03-27T16:51:29.531Z,8.20
2019-03-27T16:53:37.288Z,4.97
2019-03-27T16:55:45.107Z,7.45
2019-03-27T16:57:52.837Z,8.58
2019-03-27T17:00:00.799Z,7.70
2019-03-27T17:02:08.738Z,10.05
2019-03-27T17:04:16.418Z,10.55
2019-03-27T17:06:24.390Z,11.75
2019-03-27T17:08:32.066Z,13.10
2019-03-27T17:10:41.005Z,14.23
2019-03-27T17:12:48.778Z,15.88
2019-03-27T17:14:56.527Z,16.77
2019-03-27T17:17:04.198Z,13.35
2019-03-27T17:19:12.050Z,17.07
2019-03-27T17:21:19.799Z,22.15
2019-03-27T17:23:27.652Z,22.27
2019-03-27T17:25:35.423Z,43.00
2019-03-27T17:27:43.143Z,32.20
2019-03-27T17:29:50.768Z,27.37
2019-03-27T17:31:58.503Z,24.40
2019-03-27T17:34:06.244Z,23.00
2019-03-27T17:36:14.165Z,19.25
2019-03-27T17:38:24.734Z,22.02
2019-03-27T17:40:32.442Z,21.45
2019-03-27T17:42:40.239Z,46.45
2019-03-27T17:44:51.946Z,28.07
2019-03-27T17:46:58.463Z,41.08
2019-03-27T17:49:07.384Z,47.33
2019-03-27T17:51:15.170Z,30.62
2019-03-27T17:53:31.474Z,45.48
2019-03-27T17:55:32.549Z,49.80
2019-03-27T17:57:40.353Z,59.63
2019-03-27T17:59:48.035Z,85.92
2019-03-27T18:01:55.915Z,77.40
2019-03-27T18:04:03.624Z,90.87
2019-03-27T18:06:11.574Z,68.62
2019-03-27T18:08:19.320Z,55.10
2019-03-27T18:10:27.022Z,49.38
2019-03-27T18:12:34.804Z,55.48
2019-03-27T18:14:42.682Z,49.38
2019-03-27T18:16:50.419Z,55.60
2019-03-27T18:18:58.073Z,52.35
2019-03-27T18:21:06.352Z,57.80
2019-03-27T18:23:14.326Z,65.62
2019-03-27T18:25:21.986Z,70.10
2019-03-27T18:27:29.790Z,76.22
2019-03-27T18:29:38.562Z,79.95
2019-03-27T18:31:46.211Z,78.72
2019-03-27T18:33:55.094Z,80.50
2019-03-27T18:36:02.911Z,79.58
2019-03-27T18:38:10.670Z,77.70
2019-03-27T18:40:18.440Z,82.05
2019-03-27T18:42:26.288Z,91.72
2019-03-27T18:44:34.187Z,86.60
2019-03-27T18:46:42.826Z,85.25
2019-03-27T18:48:50.554Z,75.90
2019-03-27T18:50:58.341Z,55.45
2019-03-27T18:53:06.031Z,54.65
2019-03-27T18:55:25.800Z,42.60
2019-03-27T18:57:23.452Z,38.73
2019-03-27T18:59:31.529Z,42.58
2019-03-27T19:01:39.300Z,42.60
2019-03-27T19:03:47.050Z,34.48
2019-03-27T19:05:54.892Z,37.48
2019-03-27T19:08:02.611Z,40.85
2019-03-27T19:10:10.786Z,40.95
2019-03-27T19:12:18.547Z,38.95
2019-03-27T19:14:26.251Z,44.90
2019-03-27T19:16:34.035Z,56.20
2019-03-27T19:18:42.015Z,58.92
2019-03-27T19:20:49.733Z,56.58
2019-03-27T19:22:59.641Z,55.30
2019-03-27T19:25:09.294Z,55.45
2019-03-27T19:27:16.908Z,72.35
2019-03-27T19:29:24.676Z,70.50
2019-03-27T19:31:32.367Z,74.80
2019-03-27T19:33:40.164Z,82.40
2019-03-27T19:35:47.856Z,90.05
2019-03-27T19:37:55.694Z,153.87
2019-03-27T19:40:03.559Z,153.62
2019-03-27T19:42:11.257Z,112.97
2019-03-27T19:44:19.087Z,130.95
2019-03-27T19:46:27.016Z,139.85
2019-03-27T19:48:35.695Z,134.00
2019-03-27T19:50:43.534Z,108.32
2019-03-27T19:52:51.144Z,105.95
2019-03-27T19:54:58.837Z,99.37
2019-03-27T19:57:07.563Z,99.25
2019-03-27T19:59:15.343Z,119.85
2019-03-27T20:01:23.102Z,114.08
2019-03-27T20:03:30.864Z,118.00
2019-03-27T20:05:39.656Z,107.35
2019-03-27T20:07:47.380Z,107.63
2019-03-27T20:09:55.281Z,106.75
2019-03-27T20:12:03.080Z,117.15
2019-03-27T20:14:10.841Z,154.15
2019-03-27T20:16:18.441Z,152.07
2019-03-27T20:18:26.354Z,148.90
2019-03-27T20:20:36.659Z,164.37
2019-03-27T20:22:44.522Z,147.00
2019-03-27T20:24:52.376Z,141.20
2019-03-27T20:27:00.142Z,124.45
2019-03-27T20:29:07.845Z,119.67
2019-03-27T20:31:15.600Z,118.85
2019-03-27T20:33:23.365Z,113.92
2019-03-27T20:35:31.162Z,116.73
2019-03-27T20:37:38.979Z,113.80
2019-03-27T20:39:46.782Z,117.87
2019-03-27T20:41:54.516Z,115.45
2019-03-27T20:44:03.474Z,117.42
2019-03-27T20:46:24.112Z,116.65
2019-03-27T20:48:20.556Z,118.85
2019-03-27T20:50:29.324Z,113.55
2019-03-27T20:52:37.083Z,115.30
2019-03-27T20:54:54.936Z,113.68
2019-03-27T20:56:54.159Z,110.90
2019-03-27T20:59:01.943Z,111.92
2019-03-27T21:01:09.686Z,108.22
2019-03-27T21:03:17.446Z,102.55
2019-03-27T21:05:25.081Z,91.85
2019-03-27T21:07:32.785Z,94.90
2019-03-27T21:09:40.668Z,98.42
2019-03-27T21:11:48.564Z,88.10
2019-03-27T21:13:56.247Z,89.15
2019-03-27T21:16:03.957Z,83.70
2019-03-27T21:18:11.645Z,88.58
2019-03-27T21:20:20.725Z,87.92
2019-03-27T21:22:28.398Z,86.50
2019-03-27T21:24:36.219Z,90.60
2019-03-27T21:26:43.812Z,89.10
2019-03-27T21:28:51.489Z,106.45
2019-03-27T21:30:59.787Z,115.08
2019-03-27T21:33:08.046Z,115.42
2019-03-27T21:35:15.870Z,123.07
2019-03-27T21:37:23.575Z,116.03
2019-03-27T21:39:31.355Z,116.53
2019-03-27T21:41:39.069Z,110.68
2019-03-27T21:43:47.017Z,107.52
2019-03-27T21:45:54.670Z,111.42
2019-03-27T21:48:02.483Z,122.80
2019-03-27T21:50:10.675Z,134.30
2019-03-27T21:52:18.486Z,173.15
2019-03-27T21:54:26.288Z,178.15
2019-03-27T21:56:34.078Z,185.97
2019-03-27T21:58:42.005Z,205.12
2019-03-27T22:00:49.813Z,201.82
2019-03-27T22:02:57.507Z,199.32
2019-03-27T22:05:07.202Z,191.75
2019-03-27T22:07:15.032Z,169.28
2019-03-27T22:09:24.069Z,151.37
2019-03-27T22:11:31.835Z,147.87
2019-03-27T22:13:39.455Z,145.50
2019-03-27T22:15:47.152Z,150.90
2019-03-27T22:17:54.928Z,149.10
2019-03-27T22:20:02.846Z,150.10
2019-03-27T22:22:11.609Z,138.97
2019-03-27T22:24:19.370Z,144.90
2019-03-27T22:26:27.084Z,142.07
2019-03-27T22:28:34.962Z,143.15
2019-03-27T22:30:42.655Z,141.82
2019-03-27T22:32:50.457Z,134.43
2019-03-27T22:34:58.350Z,140.82
2019-03-27T22:37:06.128Z,145.70
2019-03-27T22:39:13.812Z,145.05
2019-03-27T22:41:21.642Z,145.50
2019-03-27T22:43:29.495Z,141.80
2019-03-27T22:45:39.019Z,141.15
2019-03-27T22:47:46.876Z,139.92
2019-03-27T22:49:54.639Z,134.55
2019-03-27T22:52:02.359Z,118.97
2019-03-27T22:54:10.553Z,120.37
2019-03-27T22:56:19.313Z,122.22
2019-03-27T22:58:27.166Z,114.00
2019-03-27T23:00:36.581Z,119.93
2019-03-27T23:02:45.947Z,130.12
2019-03-27T23:04:53.792Z,114.92
2019-03-27T23:07:01.619Z,120.67
2019-03-27T23:09:09.616Z,98.62
2019-03-27T23:11:17.484Z,113.25
2019-03-27T23:13:25.269Z,110.72
2019-03-27T23:15:33.100Z,109.83
2019-03-27T23:17:42.246Z,90.97
2019-03-27T23:19:51.270Z,92.10
2019-03-27T23:21:59.361Z,87.12
2019-03-27T23:24:07.252Z,84.95
2019-03-27T23:26:15.115Z,91.02
2019-03-27T23:28:22.923Z,88.50
2019-03-27T23:30:30.636Z,71.72
2019-03-27T23:32:38.620Z,69.03
2019-03-27T23:34:46.493Z,60.00
2019-03-27T23:36:54.236Z,45.67
2019-03-27T23:39:02.029Z,38.85
2019-03-27T23:41:11.460Z,39.60
2019-03-27T23:43:20.129Z,37.58
2019-03-27T23:45:27.808Z,35.20
2019-03-27T23:47:35.377Z,36.77
2019-03-27T23:49:43.240Z,38.58
2019-03-27T23:51:51.154Z,35.23
2019-03-27T23:53:59.299Z,41.75
2019-03-27T23:56:16.412Z,43.68
2019-03-27T23:58:16.272Z,43.13
